sensor_id;sensor_type;location;lat;lon;timestamp;temperature;humidity
45066;DHT22;30830;53.704;10.004;2023-02-28T00:01:12;2.40;99.90
45066;DHT22;30830;53.704;10.004;2023-02-28T00:03:38;2.40;99.90
45066;DHT22;30830;53.704;10.004;2023-02-28T00:06:05;2.40;99.90
45066;DHT22;30830;53.704;10.004;2023-02-28T00:08:31;2.40;99.90
45066;DHT22;30830;53.704;10.004;2023-02-28T00:11:00;2.40;99.90
45066;DHT22;30830;53.704;10.004;2023-02-28T00:13:25;2.40;99.90
45066;DHT22;30830;53.704;10.004;2023-02-28T00:15:59;2.40;99.90
45066;DHT22;30830;53.704;10.004;2023-02-28T00:18:25;2.30;99.90
45066;DHT22;30830;53.704;10.004;2023-02-28T00:20:51;2.30;99.90
45066;DHT22;30830;53.704;10.004;2023-02-28T00:23:16;2.30;99.90
45066;DHT22;30830;53.704;10.004;2023-02-28T00:25:42;2.30;99.90
45066;DHT22;30830;53.704;10.004;2023-02-28T00:28:07;2.30;99.90
45066;DHT22;30830;53.704;10.004;2023-02-28T00:30:33;2.30;99.90
45066;DHT22;30830;53.704;10.004;2023-02-28T00:32:59;2.20;99.90
45066;DHT22;30830;53.704;10.004;2023-02-28T00:35:24;2.20;99.90
45066;DHT22;30830;53.704;10.004;2023-02-28T00:37:50;2.20;99.90
45066;DHT22;30830;53.704;10.004;2023-02-28T00:40:15;2.10;99.90
45066;DHT22;30830;53.704;10.004;2023-02-28T00:42:41;2.10;99.90
45066;DHT22;30830;53.704;10.004;2023-02-28T00:45:07;2.10;99.90
45066;DHT22;30830;53.704;10.004;2023-02-28T00:47:35;2.10;99.90
45066;DHT22;30830;53.704;10.004;2023-02-28T00:50:01;2.00;99.90
45066;DHT22;30830;53.704;10.004;2023-02-28T00:52:26;2.00;99.90
45066;DHT22;30830;53.704;10.004;2023-02-28T00:54:52;2.00;99.90
45066;DHT22;30830;53.704;10.004;2023-02-28T00:57:17;2.00;99.90
45066;DHT22;30830;53.704;10.004;2023-02-28T00:59:43;2.00;99.90
45066;DHT22;30830;53.704;10.004;2023-02-28T01:02:09;2.00;99.90
45066;DHT22;30830;53.704;10.004;2023-02-28T01:04:35;2.00;99.90
45066;DHT22;30830;53.704;10.004;2023-02-28T01:07:01;1.90;99.90
45066;DHT22;30830;53.704;10.004;2023-02-28T01:09:26;1.90;99.90
45066;DHT22;30830;53.704;10.004;2023-02-28T01:11:52;1.90;99.90
45066;DHT22;30830;53.704;10.004;2023-02-28T01:14:18;1.90;99.90
45066;DHT22;30830;53.704;10.004;2023-02-28T01:16:44;1.90;99.90
45066;DHT22;30830;53.704;10.004;2023-02-28T01:19:10;1.90;99.90
45066;DHT22;30830;53.704;10.004;2023-02-28T01:21:35;1.90;99.90
45066;DHT22;30830;53.704;10.004;2023-02-28T01:24:05;1.90;99.90
45066;DHT22;30830;53.704;10.004;2023-02-28T01:26:31;1.90;99.90
45066;DHT22;30830;53.704;10.004;2023-02-28T01:28:57;1.90;99.90
45066;DHT22;30830;53.704;10.004;2023-02-28T01:31:23;1.90;99.90
45066;DHT22;30830;53.704;10.004;2023-02-28T01:33:49;1.90;99.90
45066;DHT22;30830;53.704;10.004;2023-02-28T01:36:18;1.90;99.90
45066;DHT22;30830;53.704;10.004;2023-02-28T01:38:45;1.90;99.90
45066;DHT22;30830;53.704;10.004;2023-02-28T01:41:20;1.90;99.90
45066;DHT22;30830;53.704;10.004;2023-02-28T01:46:12;1.80;99.90
45066;DHT22;30830;53.704;10.004;2023-02-28T01:48:42;1.80;99.90
45066;DHT22;30830;53.704;10.004;2023-02-28T01:51:16;1.80;99.90
45066;DHT22;30830;53.704;10.004;2023-02-28T01:53:46;1.80;99.90
45066;DHT22;30830;53.704;10.004;2023-02-28T01:56:15;1.70;99.90
45066;DHT22;30830;53.704;10.004;2023-02-28T01:58:47;1.80;99.90
45066;DHT22;30830;53.704;10.004;2023-02-28T02:01:13;1.70;99.90
45066;DHT22;30830;53.704;10.004;2023-02-28T02:03:55;1.70;99.90
45066;DHT22;30830;53.704;10.004;2023-02-28T02:06:27;1.70;99.90
45066;DHT22;30830;53.704;10.004;2023-02-28T02:08:54;1.70;99.90
45066;DHT22;30830;53.704;10.004;2023-02-28T02:11:22;1.60;99.90
45066;DHT22;30830;53.704;10.004;2023-02-28T02:17:04;1.60;99.90
45066;DHT22;30830;53.704;10.004;2023-02-28T02:25:33;1.50;99.90
45066;DHT22;30830;53.704;10.004;2023-02-28T02:34:25;1.50;99.90
45066;DHT22;30830;53.704;10.004;2023-02-28T02:39:49;1.40;99.90
45066;DHT22;30830;53.704;10.004;2023-02-28T02:42:23;1.40;99.90
45066;DHT22;30830;53.704;10.004;2023-02-28T02:45:40;1.40;99.90
45066;DHT22;30830;53.704;10.004;2023-02-28T02:48:02;1.40;99.90
45066;DHT22;30830;53.704;10.004;2023-02-28T02:50:40;1.40;99.90
45066;DHT22;30830;53.704;10.004;2023-02-28T02:53:08;1.40;99.90
45066;DHT22;30830;53.704;10.004;2023-02-28T02:55:38;1.40;99.90
45066;DHT22;30830;53.704;10.004;2023-02-28T02:58:08;1.40;99.90
45066;DHT22;30830;53.704;10.004;2023-02-28T03:00:41;1.40;99.90
45066;DHT22;30830;53.704;10.004;2023-02-28T03:03:09;1.30;99.90
45066;DHT22;30830;53.704;10.004;2023-02-28T03:05:43;1.30;99.90
45066;DHT22;30830;53.704;10.004;2023-02-28T03:08:10;1.30;99.90
45066;DHT22;30830;53.704;10.004;2023-02-28T03:15:58;1.30;99.90
45066;DHT22;30830;53.704;10.004;2023-02-28T03:18:37;1.30;99.90
45066;DHT22;30830;53.704;10.004;2023-02-28T03:21:22;1.30;99.90
45066;DHT22;30830;53.704;10.004;2023-02-28T03:24:06;1.20;99.90
45066;DHT22;30830;53.704;10.004;2023-02-28T03:26:38;1.20;99.90
45066;DHT22;30830;53.704;10.004;2023-02-28T03:31:42;1.10;99.90
45066;DHT22;30830;53.704;10.004;2023-02-28T03:34:17;1.10;99.90
45066;DHT22;30830;53.704;10.004;2023-02-28T03:36:48;1.00;99.90
45066;DHT22;30830;53.704;10.004;2023-02-28T03:39:20;1.00;99.90
45066;DHT22;30830;53.704;10.004;2023-02-28T03:42:00;0.90;99.90
45066;DHT22;30830;53.704;10.004;2023-02-28T03:44:38;0.90;99.90
45066;DHT22;30830;53.704;10.004;2023-02-28T03:47:09;0.90;99.90
45066;DHT22;30830;53.704;10.004;2023-02-28T03:49:45;0.90;99.90
45066;DHT22;30830;53.704;10.004;2023-02-28T03:52:13;0.90;99.90
45066;DHT22;30830;53.704;10.004;2023-02-28T03:54:44;0.80;99.90
45066;DHT22;30830;53.704;10.004;2023-02-28T03:59:56;0.80;99.90
45066;DHT22;30830;53.704;10.004;2023-02-28T04:02:24;0.70;99.90
45066;DHT22;30830;53.704;10.004;2023-02-28T04:04:50;0.70;99.90
45066;DHT22;30830;53.704;10.004;2023-02-28T04:07:16;0.60;99.90
45066;DHT22;30830;53.704;10.004;2023-02-28T04:09:42;0.60;99.90
45066;DHT22;30830;53.704;10.004;2023-02-28T04:12:08;0.60;99.90
45066;DHT22;30830;53.704;10.004;2023-02-28T04:14:34;0.50;99.90
45066;DHT22;30830;53.704;10.004;2023-02-28T04:16:59;0.50;99.90
45066;DHT22;30830;53.704;10.004;2023-02-28T04:19:25;0.40;99.90
45066;DHT22;30830;53.704;10.004;2023-02-28T04:21:52;0.30;99.90
45066;DHT22;30830;53.704;10.004;2023-02-28T04:24:23;0.30;99.90
45066;DHT22;30830;53.704;10.004;2023-02-28T04:26:51;0.30;99.90
45066;DHT22;30830;53.704;10.004;2023-02-28T04:29:23;0.30;99.90
45066;DHT22;30830;53.704;10.004;2023-02-28T04:31:48;0.30;99.90
45066;DHT22;30830;53.704;10.004;2023-02-28T04:34:15;0.20;99.90
45066;DHT22;30830;53.704;10.004;2023-02-28T04:36:40;0.20;99.90
45066;DHT22;30830;53.704;10.004;2023-02-28T04:39:06;0.20;99.90
45066;DHT22;30830;53.704;10.004;2023-02-28T04:41:32;0.20;99.90
45066;DHT22;30830;53.704;10.004;2023-02-28T04:43:57;0.10;99.90
45066;DHT22;30830;53.704;10.004;2023-02-28T04:46:23;0.00;99.90
45066;DHT22;30830;53.704;10.004;2023-02-28T04:48:49;0.00;99.90
45066;DHT22;30830;53.704;10.004;2023-02-28T04:51:16;-0.10;99.90
45066;DHT22;30830;53.704;10.004;2023-02-28T04:53:42;-0.10;99.90
45066;DHT22;30830;53.704;10.004;2023-02-28T04:56:11;-0.20;99.90
45066;DHT22;30830;53.704;10.004;2023-02-28T04:58:37;-0.20;99.90
45066;DHT22;30830;53.704;10.004;2023-02-28T05:01:05;-0.30;99.90
45066;DHT22;30830;53.704;10.004;2023-02-28T05:03:40;-0.30;99.90
45066;DHT22;30830;53.704;10.004;2023-02-28T05:06:07;-0.40;99.90
45066;DHT22;30830;53.704;10.004;2023-02-28T05:08:33;-0.50;99.90
45066;DHT22;30830;53.704;10.004;2023-02-28T05:10:59;-0.50;99.90
45066;DHT22;30830;53.704;10.004;2023-02-28T05:13:26;-0.60;99.90
45066;DHT22;30830;53.704;10.004;2023-02-28T05:15:52;-0.60;99.90
45066;DHT22;30830;53.704;10.004;2023-02-28T05:18:17;-0.70;99.90
45066;DHT22;30830;53.704;10.004;2023-02-28T05:20:43;-0.70;99.90
45066;DHT22;30830;53.704;10.004;2023-02-28T05:23:11;-0.80;99.90
45066;DHT22;30830;53.704;10.004;2023-02-28T05:25:38;-0.80;99.90
45066;DHT22;30830;53.704;10.004;2023-02-28T05:28:04;-0.80;99.90
45066;DHT22;30830;53.704;10.004;2023-02-28T05:30:30;-0.80;99.90
45066;DHT22;30830;53.704;10.004;2023-02-28T05:32:57;-0.90;99.90
45066;DHT22;30830;53.704;10.004;2023-02-28T05:35:23;-0.90;99.90
45066;DHT22;30830;53.704;10.004;2023-02-28T05:37:48;-0.90;99.90
45066;DHT22;30830;53.704;10.004;2023-02-28T05:40:14;-1.00;99.90
45066;DHT22;30830;53.704;10.004;2023-02-28T05:42:41;-1.00;99.90
45066;DHT22;30830;53.704;10.004;2023-02-28T05:45:07;-1.00;99.90
45066;DHT22;30830;53.704;10.004;2023-02-28T05:47:34;-1.10;99.90
45066;DHT22;30830;53.704;10.004;2023-02-28T05:49:59;-1.10;99.90
45066;DHT22;30830;53.704;10.004;2023-02-28T05:52:25;-1.10;99.90
45066;DHT22;30830;53.704;10.004;2023-02-28T05:54:51;-1.10;99.90
45066;DHT22;30830;53.704;10.004;2023-02-28T05:57:16;-1.10;99.90
45066;DHT22;30830;53.704;10.004;2023-02-28T05:59:42;-1.10;99.90
45066;DHT22;30830;53.704;10.004;2023-02-28T06:02:13;-1.10;99.90
45066;DHT22;30830;53.704;10.004;2023-02-28T06:04:39;-1.10;99.90
45066;DHT22;30830;53.704;10.004;2023-02-28T06:07:06;-1.10;99.90
45066;DHT22;30830;53.704;10.004;2023-02-28T06:09:32;-1.10;99.90
45066;DHT22;30830;53.704;10.004;2023-02-28T06:11:59;-1.10;99.90
45066;DHT22;30830;53.704;10.004;2023-02-28T06:14:25;-1.10;99.90
45066;DHT22;30830;53.704;10.004;2023-02-28T06:16:51;-1.10;99.90
45066;DHT22;30830;53.704;10.004;2023-02-28T06:19:17;-1.20;99.90
45066;DHT22;30830;53.704;10.004;2023-02-28T06:21:43;-1.20;99.90
45066;DHT22;30830;53.704;10.004;2023-02-28T06:24:09;-1.30;99.90
45066;DHT22;30830;53.704;10.004;2023-02-28T06:26:35;-1.30;99.90
45066;DHT22;30830;53.704;10.004;2023-02-28T06:29:01;-1.30;99.90
45066;DHT22;30830;53.704;10.004;2023-02-28T06:31:27;-1.30;99.90
45066;DHT22;30830;53.704;10.004;2023-02-28T06:33:54;-1.30;99.90
45066;DHT22;30830;53.704;10.004;2023-02-28T06:36:20;-1.40;99.90
45066;DHT22;30830;53.704;10.004;2023-02-28T06:38:45;-1.40;99.90
45066;DHT22;30830;53.704;10.004;2023-02-28T06:41:13;-1.40;99.90
45066;DHT22;30830;53.704;10.004;2023-02-28T06:43:41;-1.40;99.90
45066;DHT22;30830;53.704;10.004;2023-02-28T06:46:10;-1.40;99.90
45066;DHT22;30830;53.704;10.004;2023-02-28T06:48:36;-1.40;99.90
45066;DHT22;30830;53.704;10.004;2023-02-28T06:51:06;-1.40;99.90
45066;DHT22;30830;53.704;10.004;2023-02-28T06:53:32;-1.40;99.90
45066;DHT22;30830;53.704;10.004;2023-02-28T06:55:58;-1.40;99.90
45066;DHT22;30830;53.704;10.004;2023-02-28T06:58:24;-1.40;99.90
45066;DHT22;30830;53.704;10.004;2023-02-28T07:00:52;-1.40;99.90
45066;DHT22;30830;53.704;10.004;2023-02-28T07:03:18;-1.40;99.90
45066;DHT22;30830;53.704;10.004;2023-02-28T07:05:44;-1.40;99.90
45066;DHT22;30830;53.704;10.004;2023-02-28T07:08:10;-1.40;99.90
45066;DHT22;30830;53.704;10.004;2023-02-28T07:10:40;-1.40;99.90
45066;DHT22;30830;53.704;10.004;2023-02-28T07:13:07;-1.40;99.90
45066;DHT22;30830;53.704;10.004;2023-02-28T07:15:34;-1.30;99.90
45066;DHT22;30830;53.704;10.004;2023-02-28T07:18:00;-1.40;99.90
45066;DHT22;30830;53.704;10.004;2023-02-28T07:20:26;-1.30;99.90
45066;DHT22;30830;53.704;10.004;2023-02-28T07:22:51;-1.30;99.90
45066;DHT22;30830;53.704;10.004;2023-02-28T07:25:24;-1.30;99.90
45066;DHT22;30830;53.704;10.004;2023-02-28T07:27:50;-1.30;99.90
45066;DHT22;30830;53.704;10.004;2023-02-28T07:30:16;-1.30;99.90
45066;DHT22;30830;53.704;10.004;2023-02-28T07:32:41;-1.20;99.90
45066;DHT22;30830;53.704;10.004;2023-02-28T07:35:07;-1.20;99.90
45066;DHT22;30830;53.704;10.004;2023-02-28T07:37:33;-1.20;99.90
45066;DHT22;30830;53.704;10.004;2023-02-28T07:40:05;-1.20;99.90
45066;DHT22;30830;53.704;10.004;2023-02-28T07:42:34;-1.10;99.90
45066;DHT22;30830;53.704;10.004;2023-02-28T07:45:00;-1.10;99.90
45066;DHT22;30830;53.704;10.004;2023-02-28T07:47:26;-1.00;99.90
45066;DHT22;30830;53.704;10.004;2023-02-28T07:49:52;-1.00;99.90
45066;DHT22;30830;53.704;10.004;2023-02-28T07:52:18;-0.90;99.90
45066;DHT22;30830;53.704;10.004;2023-02-28T07:54:43;-0.90;99.90
45066;DHT22;30830;53.704;10.004;2023-02-28T07:57:09;-0.80;99.90
45066;DHT22;30830;53.704;10.004;2023-02-28T07:59:34;-0.70;99.90
45066;DHT22;30830;53.704;10.004;2023-02-28T08:02:00;-0.70;99.90
45066;DHT22;30830;53.704;10.004;2023-02-28T08:04:26;-0.50;99.90
45066;DHT22;30830;53.704;10.004;2023-02-28T08:06:51;-0.50;99.90
45066;DHT22;30830;53.704;10.004;2023-02-28T08:09:21;-0.40;99.90
45066;DHT22;30830;53.704;10.004;2023-02-28T08:11:47;-0.30;99.90
45066;DHT22;30830;53.704;10.004;2023-02-28T08:14:13;-0.20;99.90
45066;DHT22;30830;53.704;10.004;2023-02-28T08:16:39;0.00;99.90
45066;DHT22;30830;53.704;10.004;2023-02-28T08:19:04;0.10;99.90
45066;DHT22;30830;53.704;10.004;2023-02-28T08:21:30;0.30;99.90
45066;DHT22;30830;53.704;10.004;2023-02-28T08:23:56;0.40;99.90
45066;DHT22;30830;53.704;10.004;2023-02-28T08:26:22;0.50;99.90
45066;DHT22;30830;53.704;10.004;2023-02-28T08:28:48;0.60;99.90
45066;DHT22;30830;53.704;10.004;2023-02-28T08:31:15;0.80;99.90
45066;DHT22;30830;53.704;10.004;2023-02-28T08:33:41;0.90;99.90
45066;DHT22;30830;53.704;10.004;2023-02-28T08:36:08;1.10;99.90
45066;DHT22;30830;53.704;10.004;2023-02-28T08:38:35;1.20;99.90
45066;DHT22;30830;53.704;10.004;2023-02-28T08:41:06;1.50;99.90
45066;DHT22;30830;53.704;10.004;2023-02-28T08:43:33;1.70;99.90
45066;DHT22;30830;53.704;10.004;2023-02-28T08:45:59;1.90;99.90
45066;DHT22;30830;53.704;10.004;2023-02-28T08:48:27;2.10;99.90
45066;DHT22;30830;53.704;10.004;2023-02-28T08:51:04;2.30;99.90
45066;DHT22;30830;53.704;10.004;2023-02-28T08:53:31;2.40;99.90
45066;DHT22;30830;53.704;10.004;2023-02-28T08:56:11;2.50;99.90
45066;DHT22;30830;53.704;10.004;2023-02-28T08:58:37;2.70;99.90
45066;DHT22;30830;53.704;10.004;2023-02-28T09:03:39;3.10;99.90
45066;DHT22;30830;53.704;10.004;2023-02-28T09:06:07;3.20;99.90
45066;DHT22;30830;53.704;10.004;2023-02-28T09:08:33;3.30;99.90
45066;DHT22;30830;53.704;10.004;2023-02-28T09:10:59;3.40;99.90
45066;DHT22;30830;53.704;10.004;2023-02-28T09:13:26;3.60;99.90
45066;DHT22;30830;53.704;10.004;2023-02-28T09:15:52;3.70;99.90
45066;DHT22;30830;53.704;10.004;2023-02-28T09:18:18;3.80;99.90
45066;DHT22;30830;53.704;10.004;2023-02-28T09:20:44;3.90;99.90
45066;DHT22;30830;53.704;10.004;2023-02-28T09:23:11;4.00;99.90
45066;DHT22;30830;53.704;10.004;2023-02-28T09:25:40;4.10;99.90
45066;DHT22;30830;53.704;10.004;2023-02-28T09:28:09;4.30;99.90
45066;DHT22;30830;53.704;10.004;2023-02-28T09:30:35;4.40;99.90
45066;DHT22;30830;53.704;10.004;2023-02-28T09:33:01;4.40;99.90
45066;DHT22;30830;53.704;10.004;2023-02-28T09:35:27;4.50;99.90
45066;DHT22;30830;53.704;10.004;2023-02-28T09:37:52;4.60;99.90
45066;DHT22;30830;53.704;10.004;2023-02-28T09:40:20;4.70;99.90
45066;DHT22;30830;53.704;10.004;2023-02-28T09:42:49;4.80;99.90
45066;DHT22;30830;53.704;10.004;2023-02-28T09:45:37;4.80;99.90
45066;DHT22;30830;53.704;10.004;2023-02-28T09:48:12;4.90;99.90
45066;DHT22;30830;53.704;10.004;2023-02-28T09:50:43;4.90;99.90
45066;DHT22;30830;53.704;10.004;2023-02-28T09:53:33;5.00;99.90
45066;DHT22;30830;53.704;10.004;2023-02-28T09:56:04;5.10;99.90
45066;DHT22;30830;53.704;10.004;2023-02-28T10:06:26;5.40;99.90
45066;DHT22;30830;53.704;10.004;2023-02-28T10:09:04;5.50;99.90
45066;DHT22;30830;53.704;10.004;2023-02-28T10:11:33;5.60;99.90
45066;DHT22;30830;53.704;10.004;2023-02-28T10:14:00;5.60;99.90
45066;DHT22;30830;53.704;10.004;2023-02-28T10:19:06;5.70;99.90
45066;DHT22;30830;53.704;10.004;2023-02-28T10:21:57;5.70;99.90
45066;DHT22;30830;53.704;10.004;2023-02-28T10:24:30;5.70;99.90
45066;DHT22;30830;53.704;10.004;2023-02-28T10:27:01;5.80;99.90
45066;DHT22;30830;53.704;10.004;2023-02-28T10:29:31;5.80;99.90
45066;DHT22;30830;53.704;10.004;2023-02-28T10:32:01;5.80;99.90
45066;DHT22;30830;53.704;10.004;2023-02-28T10:34:28;5.90;99.90
45066;DHT22;30830;53.704;10.004;2023-02-28T10:36:54;6.00;99.90
45066;DHT22;30830;53.704;10.004;2023-02-28T10:42:26;6.10;99.90
45066;DHT22;30830;53.704;10.004;2023-02-28T10:45:15;6.10;99.90
45066;DHT22;30830;53.704;10.004;2023-02-28T11:03:55;6.40;99.90
45066;DHT22;30830;53.704;10.004;2023-02-28T11:06:26;6.50;99.90
45066;DHT22;30830;53.704;10.004;2023-02-28T11:08:55;6.60;99.90
45066;DHT22;30830;53.704;10.004;2023-02-28T11:11:24;6.60;99.90
45066;DHT22;30830;53.704;10.004;2023-02-28T11:13:56;6.60;99.90
45066;DHT22;30830;53.704;10.004;2023-02-28T11:16:32;6.50;99.80
45066;DHT22;30830;53.704;10.004;2023-02-28T11:18:58;6.50;99.90
45066;DHT22;30830;53.704;10.004;2023-02-28T11:24:00;6.50;99.90
45066;DHT22;30830;53.704;10.004;2023-02-28T11:26:42;6.50;99.90
45066;DHT22;30830;53.704;10.004;2023-02-28T11:29:30;6.50;99.90
45066;DHT22;30830;53.704;10.004;2023-02-28T11:34:29;6.60;99.90
45066;DHT22;30830;53.704;10.004;2023-02-28T11:36:57;6.60;99.50
45066;DHT22;30830;53.704;10.004;2023-02-28T11:39:24;6.60;98.90
45066;DHT22;30830;53.704;10.004;2023-02-28T11:49:47;6.50;96.60
45066;DHT22;30830;53.704;10.004;2023-02-28T11:52:36;6.50;95.30
45066;DHT22;30830;53.704;10.004;2023-02-28T12:06:33;6.50;97.80
45066;DHT22;30830;53.704;10.004;2023-02-28T12:12:20;6.50;95.80
45066;DHT22;30830;53.704;10.004;2023-02-28T12:29:13;6.50;94.50
45066;DHT22;30830;53.704;10.004;2023-02-28T12:31:45;6.60;94.50
45066;DHT22;30830;53.704;10.004;2023-02-28T12:34:15;6.50;93.30
45066;DHT22;30830;53.704;10.004;2023-02-28T12:36:44;6.50;94.20
45066;DHT22;30830;53.704;10.004;2023-02-28T12:39:56;6.50;92.50
45066;DHT22;30830;53.704;10.004;2023-02-28T12:42:07;6.50;91.80
45066;DHT22;30830;53.704;10.004;2023-02-28T12:44:43;6.50;93.80
45066;DHT22;30830;53.704;10.004;2023-02-28T12:47:14;6.50;92.80
45066;DHT22;30830;53.704;10.004;2023-02-28T12:49:45;6.50;94.00
45066;DHT22;30830;53.704;10.004;2023-02-28T12:52:14;6.50;92.50
45066;DHT22;30830;53.704;10.004;2023-02-28T12:54:47;6.50;92.40
45066;DHT22;30830;53.704;10.004;2023-02-28T13:00:13;6.50;92.10
45066;DHT22;30830;53.704;10.004;2023-02-28T13:05:31;6.60;92.60
45066;DHT22;30830;53.704;10.004;2023-02-28T13:11:06;6.60;92.20
45066;DHT22;30830;53.704;10.004;2023-02-28T13:13:32;6.60;92.20
45066;DHT22;30830;53.704;10.004;2023-02-28T13:16:10;6.70;93.40
45066;DHT22;30830;53.704;10.004;2023-02-28T13:18:40;6.70;93.40
45066;DHT22;30830;53.704;10.004;2023-02-28T13:21:24;6.70;92.00
45066;DHT22;30830;53.704;10.004;2023-02-28T13:26:32;6.70;92.60
45066;DHT22;30830;53.704;10.004;2023-02-28T13:34:32;6.80;93.60
45066;DHT22;30830;53.704;10.004;2023-02-28T13:39:52;6.80;91.60
45066;DHT22;30830;53.704;10.004;2023-02-28T13:47:43;6.80;90.90
45066;DHT22;30830;53.704;10.004;2023-02-28T14:01:49;6.90;92.40
45066;DHT22;30830;53.704;10.004;2023-02-28T14:04:49;6.90;91.10
45066;DHT22;30830;53.704;10.004;2023-02-28T14:07:27;7.00;90.90
45066;DHT22;30830;53.704;10.004;2023-02-28T14:10:03;7.00;91.40
45066;DHT22;30830;53.704;10.004;2023-02-28T14:15:41;7.00;91.90
45066;DHT22;30830;53.704;10.004;2023-02-28T14:18:19;7.00;91.10
45066;DHT22;30830;53.704;10.004;2023-02-28T14:20:47;7.00;91.10
45066;DHT22;30830;53.704;10.004;2023-02-28T14:26:19;6.90;92.20
45066;DHT22;30830;53.704;10.004;2023-02-28T14:32:01;6.90;92.50
45066;DHT22;30830;53.704;10.004;2023-02-28T14:34:44;6.90;91.10
45066;DHT22;30830;53.704;10.004;2023-02-28T14:37:16;6.90;90.60
45066;DHT22;30830;53.704;10.004;2023-02-28T14:39:44;6.80;91.00
45066;DHT22;30830;53.704;10.004;2023-02-28T14:42:33;6.80;91.50
45066;DHT22;30830;53.704;10.004;2023-02-28T14:45:00;6.70;91.20
45066;DHT22;30830;53.704;10.004;2023-02-28T14:47:30;6.70;91.60
45066;DHT22;30830;53.704;10.004;2023-02-28T14:49:58;6.70;91.20
45066;DHT22;30830;53.704;10.004;2023-02-28T14:52:29;6.70;90.70
45066;DHT22;30830;53.704;10.004;2023-02-28T14:54:56;6.70;90.80
45066;DHT22;30830;53.704;10.004;2023-02-28T14:57:23;6.60;91.70
45066;DHT22;30830;53.704;10.004;2023-02-28T15:00:06;6.60;90.70
45066;DHT22;30830;53.704;10.004;2023-02-28T15:02:37;6.60;90.70
45066;DHT22;30830;53.704;10.004;2023-02-28T15:07:35;6.50;91.60
45066;DHT22;30830;53.704;10.004;2023-02-28T15:10:22;6.50;90.80
45066;DHT22;30830;53.704;10.004;2023-02-28T15:12:59;6.50;87.40
45066;DHT22;30830;53.704;10.004;2023-02-28T15:15:44;6.50;90.50
45066;DHT22;30830;53.704;10.004;2023-02-28T15:18:40;6.40;89.20
45066;DHT22;30830;53.704;10.004;2023-02-28T15:21:07;6.40;86.00
45066;DHT22;30830;53.704;10.004;2023-02-28T15:23:34;6.40;86.70
45066;DHT22;30830;53.704;10.004;2023-02-28T15:26:01;6.30;84.40
45066;DHT22;30830;53.704;10.004;2023-02-28T15:28:28;6.30;85.20
45066;DHT22;30830;53.704;10.004;2023-02-28T15:30:57;6.30;85.60
45066;DHT22;30830;53.704;10.004;2023-02-28T15:33:27;6.20;86.50
45066;DHT22;30830;53.704;10.004;2023-02-28T15:36:15;6.20;87.70
45066;DHT22;30830;53.704;10.004;2023-02-28T15:38:42;6.20;88.20
45066;DHT22;30830;53.704;10.004;2023-02-28T15:41:24;6.10;90.30
45066;DHT22;30830;53.704;10.004;2023-02-28T15:44:18;6.10;90.70
45066;DHT22;30830;53.704;10.004;2023-02-28T15:49:21;6.00;91.60
45066;DHT22;30830;53.704;10.004;2023-02-28T15:51:49;5.90;92.00
45066;DHT22;30830;53.704;10.004;2023-02-28T15:54:26;5.90;91.90
45066;DHT22;30830;53.704;10.004;2023-02-28T15:56:55;5.80;92.60
45066;DHT22;30830;53.704;10.004;2023-02-28T15:59:30;5.70;93.40
45066;DHT22;30830;53.704;10.004;2023-02-28T16:04:36;5.60;93.10
45066;DHT22;30830;53.704;10.004;2023-02-28T16:07:04;5.50;93.60
45066;DHT22;30830;53.704;10.004;2023-02-28T16:09:30;5.40;93.80
45066;DHT22;30830;53.704;10.004;2023-02-28T16:12:00;5.40;93.90
45066;DHT22;30830;53.704;10.004;2023-02-28T16:14:31;5.30;94.40
45066;DHT22;30830;53.704;10.004;2023-02-28T16:17:04;5.30;93.90
45066;DHT22;30830;53.704;10.004;2023-02-28T16:19:30;5.20;94.10
45066;DHT22;30830;53.704;10.004;2023-02-28T16:21:56;5.10;94.80
45066;DHT22;30830;53.704;10.004;2023-02-28T16:24:22;5.00;95.30
45066;DHT22;30830;53.704;10.004;2023-02-28T16:26:48;5.00;95.30
45066;DHT22;30830;53.704;10.004;2023-02-28T16:29:31;4.90;95.80
45066;DHT22;30830;53.704;10.004;2023-02-28T16:31:57;4.90;95.90
45066;DHT22;30830;53.704;10.004;2023-02-28T16:34:24;4.80;96.20
45066;DHT22;30830;53.704;10.004;2023-02-28T16:36:50;4.70;96.40
45066;DHT22;30830;53.704;10.004;2023-02-28T16:39:16;4.70;96.70
45066;DHT22;30830;53.704;10.004;2023-02-28T16:41:45;4.60;96.40
45066;DHT22;30830;53.704;10.004;2023-02-28T16:44:19;4.60;96.50
45066;DHT22;30830;53.704;10.004;2023-02-28T16:46:46;4.50;96.50
45066;DHT22;30830;53.704;10.004;2023-02-28T16:49:12;4.40;96.70
45066;DHT22;30830;53.704;10.004;2023-02-28T16:51:38;4.30;97.00
45066;DHT22;30830;53.704;10.004;2023-02-28T16:54:04;4.30;97.00
45066;DHT22;30830;53.704;10.004;2023-02-28T16:56:30;4.20;97.20
45066;DHT22;30830;53.704;10.004;2023-02-28T16:58:59;4.10;97.20
45066;DHT22;30830;53.704;10.004;2023-02-28T17:01:25;4.00;97.50
45066;DHT22;30830;53.704;10.004;2023-02-28T17:03:52;4.00;97.60
45066;DHT22;30830;53.704;10.004;2023-02-28T17:06:27;3.90;97.90
45066;DHT22;30830;53.704;10.004;2023-02-28T17:08:54;3.80;98.40
45066;DHT22;30830;53.704;10.004;2023-02-28T17:11:21;3.70;98.50
45066;DHT22;30830;53.704;10.004;2023-02-28T17:13:46;3.70;98.70
45066;DHT22;30830;53.704;10.004;2023-02-28T17:16:32;3.60;99.10
45066;DHT22;30830;53.704;10.004;2023-02-28T17:19:01;3.50;99.90
45066;DHT22;30830;53.704;10.004;2023-02-28T17:21:27;3.40;99.90
45066;DHT22;30830;53.704;10.004;2023-02-28T17:23:53;3.30;99.90
45066;DHT22;30830;53.704;10.004;2023-02-28T17:26:20;3.20;99.90
45066;DHT22;30830;53.704;10.004;2023-02-28T17:28:49;3.20;99.90
45066;DHT22;30830;53.704;10.004;2023-02-28T17:31:16;3.10;99.90
45066;DHT22;30830;53.704;10.004;2023-02-28T17:33:42;3.10;99.90
45066;DHT22;30830;53.704;10.004;2023-02-28T17:36:13;3.00;99.90
45066;DHT22;30830;53.704;10.004;2023-02-28T17:38:40;2.90;99.90
45066;DHT22;30830;53.704;10.004;2023-02-28T17:41:07;2.90;99.90
45066;DHT22;30830;53.704;10.004;2023-02-28T17:43:33;2.80;99.90
45066;DHT22;30830;53.704;10.004;2023-02-28T17:45:58;2.80;99.90
45066;DHT22;30830;53.704;10.004;2023-02-28T17:48:24;2.70;99.90
45066;DHT22;30830;53.704;10.004;2023-02-28T17:50:50;2.60;99.90
45066;DHT22;30830;53.704;10.004;2023-02-28T17:53:16;2.60;99.90
45066;DHT22;30830;53.704;10.004;2023-02-28T17:55:42;2.50;99.90
45066;DHT22;30830;53.704;10.004;2023-02-28T17:58:11;2.40;99.90
45066;DHT22;30830;53.704;10.004;2023-02-28T18:00:39;2.30;99.90
45066;DHT22;30830;53.704;10.004;2023-02-28T18:03:05;2.30;99.90
45066;DHT22;30830;53.704;10.004;2023-02-28T18:05:31;2.20;99.90
45066;DHT22;30830;53.704;10.004;2023-02-28T18:07:57;2.10;99.90
45066;DHT22;30830;53.704;10.004;2023-02-28T18:10:23;2.10;99.90
45066;DHT22;30830;53.704;10.004;2023-02-28T18:12:50;2.00;99.90
45066;DHT22;30830;53.704;10.004;2023-02-28T18:15:18;2.00;99.90
45066;DHT22;30830;53.704;10.004;2023-02-28T18:17:45;1.90;99.90
45066;DHT22;30830;53.704;10.004;2023-02-28T18:20:12;1.90;99.90